Time;durP1;ratioP1;P1;durP2;ratioP2;P2;SDS_P1;SDS_P2;PMS_P1;PMS_P2;Temp;Humidity;BMP_temperature;BMP_pressure;BME280_temperature;BME280_humidity;BME280_pressure;Samples;Min_cycle;Max_cycle;Signal;HPM_P1;HPM_P2
2022/09/21 00:01:15;;;;;;;3.07;2.30;;;5.70;99.90;;;;;;4993509;28;20547;-79
2022/09/21 00:03:43;;;;;;;2.90;2.60;;;;;;;;;;4992319;28;20449;-79
2022/09/21 00:06:12;;;;;;;3.30;2.47;;;5.60;99.90;;;;;;4993524;28;20450;-79
2022/09/21 00:08:39;;;;;;;2.87;2.20;;;;;;;;;;4993481;28;20460;-80
2022/09/21 00:11:07;;;;;;;4.17;2.07;;;5.60;99.90;;;;;;4993452;28;20457;-80
2022/09/21 00:13:36;;;;;;;3.00;2.43;;;5.60;99.90;;;;;;4993446;28;20967;-80
2022/09/21 00:16:05;;;;;;;3.60;2.50;;;;;;;;;;4993375;28;20453;-79
2022/09/21 00:18:33;;;;;;;3.30;2.40;;;;;;;;;;4991996;28;20547;-79
2022/09/21 00:21:01;;;;;;;2.33;2.13;;;;;;;;;;4993212;28;20469;-79
2022/09/21 00:23:28;;;;;;;3.47;2.83;;;;;;;;;;4993281;28;20453;-79
2022/09/21 00:26:04;;;;;;;2.47;2.27;;;;;;;;;;4993277;28;20445;-79
2022/09/21 00:28:32;;;;;;;4.53;2.10;;;;;;;;;;4993361;28;20808;-79
2022/09/21 00:31:02;;;;;;;5.83;2.77;;;5.40;99.90;;;;;;4993277;28;20548;-79
2022/09/21 00:33:29;;;;;;;4.57;2.50;;;;;;;;;;4991873;28;20901;-80
2022/09/21 00:35:56;;;;;;;3.10;2.60;;;;;;;;;;4993102;28;20827;-79
2022/09/21 00:38:23;;;;;;;2.97;2.20;;;;;;;;;;4993155;28;21023;-79
2022/09/21 00:40:50;;;;;;;2.73;2.20;;;;;;;;;;4993133;28;20464;-79
2022/09/21 00:43:17;;;;;;;3.63;2.87;;;5.20;99.90;;;;;;4993131;28;20448;-79
2022/09/21 00:45:48;;;;;;;7.90;2.50;;;5.20;99.90;;;;;;4993092;28;20629;-79
2022/09/21 00:48:15;;;;;;;3.20;2.60;;;;;;;;;;4991672;28;20453;-79
2022/09/21 00:50:46;;;;;;;3.90;2.17;;;5.30;99.90;;;;;;4993100;28;20941;-79
2022/09/21 00:53:14;;;;;;;3.33;2.40;;;;;;;;;;4993008;28;20452;-79
2022/09/21 00:55:45;;;;;;;2.80;2.30;;;5.10;99.90;;;;;;4993041;28;20456;-79
2022/09/21 00:58:16;;;;;;;3.87;2.63;;;5.10;99.90;;;;;;4992917;28;20484;-79
2022/09/21 01:00:44;;;;;;;5.20;3.17;;;;;;;;;;4995385;28;20560;-79
2022/09/21 01:03:13;;;;;;;3.63;2.53;;;5.00;99.90;;;;;;4995327;28;20806;-79
2022/09/21 01:05:40;;;;;;;2.80;2.40;;;;;;;;;;4996432;28;20799;-79
2022/09/21 01:08:11;;;;;;;4.90;3.03;;;5.00;99.90;;;;;;4996467;28;20457;-79
2022/09/21 01:10:47;;;;;;;3.30;2.53;;;5.00;99.90;;;;;;4996507;28;20460;-80
2022/09/21 01:13:25;;;;;;;2.40;1.80;;;4.90;99.90;;;;;;4996256;28;20461;-80
2022/09/21 01:16:02;;;;;;;3.90;2.83;;;4.90;99.90;;;;;;4996377;28;20456;-79
2022/09/21 01:18:35;;;;;;;2.60;2.40;;;4.90;99.90;;;;;;4994968;28;20546;-81
2022/09/21 01:21:24;;;;;;;2.77;2.30;;;4.80;99.90;;;;;;4996251;28;20500;-80
2022/09/21 01:24:25;;;;;;;6.03;2.50;;;4.70;99.90;;;;;;4996076;28;20456;-79
2022/09/21 01:27:25;;;;;;;5.17;1.93;;;4.80;99.90;;;;;;4996102;28;20947;-79
2022/09/21 01:29:59;;;;;;;5.33;2.63;;;4.80;99.90;;;;;;4996362;28;20462;-79
2022/09/21 01:32:29;;;;;;;2.97;2.53;;;4.80;99.90;;;;;;4994833;28;20492;-79
2022/09/21 01:35:00;;;;;;;4.83;2.40;;;4.90;99.90;;;;;;4996078;28;20449;-79
2022/09/21 01:37:32;;;;;;;6.77;2.57;;;5.20;99.90;;;;;;4996032;28;20448;-79
2022/09/21 01:40:04;;;;;;;3.00;2.37;;;5.00;99.90;;;;;;4995981;28;20501;-79
2022/09/21 01:42:32;;;;;;;4.13;2.40;;;5.00;99.90;;;;;;4995956;28;20453;-79
2022/09/21 01:45:04;;;;;;;5.00;2.50;;;4.90;99.90;;;;;;4995980;28;20453;-79
2022/09/21 01:47:31;;;;;;;4.33;2.50;;;;;;;;;;4994659;28;20941;-79
2022/09/21 01:50:02;;;;;;;3.10;2.33;;;4.70;99.90;;;;;;4996070;28;20948;-79
2022/09/21 01:52:36;;;;;;;4.57;2.63;;;4.80;99.90;;;;;;4995760;28;20446;-79
2022/09/21 01:55:07;;;;;;;3.63;2.40;;;4.70;99.90;;;;;;4995522;28;20456;-80
2022/09/21 01:57:42;;;;;;;2.60;2.40;;;4.70;99.90;;;;;;4995211;28;20500;-79
2022/09/21 02:00:11;;;;;;;3.50;2.93;;;6.80;99.90;;;;;;4995808;28;20819;-79
2022/09/21 02:02:43;;;;;;;5.13;3.00;;;4.60;99.90;;;;;;4994403;28;20445;-79
2022/09/21 02:05:11;;;;;;;4.10;2.80;;;4.60;99.90;;;;;;4995553;28;20453;-79
2022/09/21 02:07:39;;;;;;;3.83;2.67;;;4.60;99.90;;;;;;4993529;28;20445;-79
2022/09/21 02:10:08;;;;;;;4.97;2.80;;;4.60;99.90;;;;;;4995757;28;20460;-78
2022/09/21 02:12:37;;;;;;;2.80;2.50;;;;;;;;;;4994851;28;20520;-79
2022/09/21 02:15:04;;;;;;;2.97;2.60;;;;;;;;;;4998585;28;20449;-78
2022/09/21 02:17:42;;;;;;;4.17;3.00;;;4.60;99.90;;;;;;5018757;28;20429;-79
2022/09/21 02:20:19;;;;;;;4.63;2.60;;;4.60;99.90;;;;;;4987332;28;20845;-79
2022/09/21 02:22:58;;;;;;;4.23;2.40;;;4.60;99.90;;;;;;4990303;28;20585;-79
2022/09/21 02:25:32;;;;;;;3.30;2.40;;;4.50;99.90;;;;;;4995057;28;20456;-79
2022/09/21 02:28:06;;;;;;;3.10;2.70;;;4.50;99.90;;;;;;4994739;28;20448;-79
2022/09/21 02:30:36;;;;;;;4.50;2.87;;;4.50;99.90;;;;;;4994901;28;20449;-79
2022/09/21 02:33:11;;;;;;;3.43;2.63;;;4.60;99.90;;;;;;4993601;28;20499;-79
2022/09/21 02:35:42;;;;;;;4.57;3.13;;;4.60;99.90;;;;;;4995500;28;20445;-79
2022/09/21 02:38:15;;;;;;;3.80;3.00;;;4.50;99.90;;;;;;4994774;28;20453;-80
2022/09/21 02:40:51;;;;;;;3.17;2.53;;;4.50;99.90;;;;;;4994875;28;20484;-79
2022/09/21 02:43:22;;;;;;;3.60;3.13;;;4.40;99.90;;;;;;4994778;28;20459;-79
2022/09/21 02:45:54;;;;;;;7.90;2.63;;;4.20;99.90;;;;;;4994720;28;20453;-79
2022/09/21 02:48:26;;;;;;;3.73;2.63;;;4.40;99.90;;;;;;4993473;28;20461;-80
2022/09/21 02:50:56;;;;;;;4.93;2.90;;;4.40;99.90;;;;;;4994539;28;20464;-79
2022/09/21 02:53:27;;;;;;;3.60;2.97;;;4.40;99.90;;;;;;4994492;28;20949;-78
2022/09/21 02:55:57;;;;;;;2.77;2.43;;;4.40;99.90;;;;;;4994520;28;20449;-79
2022/09/21 02:58:27;;;;;;;3.17;2.90;;;4.40;99.90;;;;;;4994327;28;20492;-79
2022/09/21 03:00:55;;;;;;;5.03;2.80;;;4.40;99.90;;;;;;4994400;28;20824;-79
2022/09/21 03:03:25;;;;;;;4.53;3.03;;;;;;;;;;4993190;28;20445;-80
2022/09/21 03:05:54;;;;;;;7.90;2.80;;;4.30;99.90;;;;;;4994246;28;20488;-79
2022/09/21 03:08:21;;;;;;;4.40;3.40;;;;;;;;;;4994305;28;20445;-79
2022/09/21 03:10:49;;;;;;;4.07;2.77;;;;;;;;;;4994298;28;20449;-79
2022/09/21 03:13:16;;;;;;;4.00;3.00;;;;;;;;;;4994318;28;20461;-79
2022/09/21 03:15:44;;;;;;;5.30;3.00;;;;;;;;;;4994180;28;20449;-79
2022/09/21 03:18:12;;;;;;;8.73;3.50;;;4.20;99.90;;;;;;4992728;28;20457;-79
2022/09/21 03:20:44;;;;;;;4.20;3.10;;;4.20;99.90;;;;;;4993975;28;20465;-79
2022/09/21 03:23:11;;;;;;;5.10;3.03;;;;;;;;;;4993794;28;20476;-78
2022/09/21 03:25:39;;;;;;;3.30;2.70;;;;;;;;;;4994060;28;20815;-79
2022/09/21 03:28:06;;;;;;;3.10;2.70;;;;;;;;;;4993901;28;20451;-79
2022/09/21 03:30:34;;;;;;;3.63;3.33;;;;;;;;;;4993674;28;20449;-79
2022/09/21 03:33:05;;;;;;;6.20;2.80;;;;;;;;;;4992396;28;21018;-79
2022/09/21 03:35:33;;;;;;;7.33;3.03;;;4.10;99.90;;;;;;4993861;28;20456;-79
2022/09/21 03:38:01;;;;;;;3.53;2.63;;;4.10;99.90;;;;;;4993415;28;20454;-79
2022/09/21 03:40:30;;;;;;;4.57;2.60;;;;;;;;;;4993892;28;20492;-79
2022/09/21 03:42:57;;;;;;;8.83;3.20;;;;;;;;;;4993783;28;20954;-80
2022/09/21 03:45:26;;;;;;;3.43;2.80;;;;;;;;;;4993684;28;20933;-79
2022/09/21 03:47:55;;;;;;;9.37;3.77;;;4.10;99.90;;;;;;4992594;28;20476;-79
2022/09/21 03:50:22;;;;;;;3.40;2.83;;;;;;;;;;4993613;28;20454;-79
2022/09/21 03:52:49;;;;;;;3.20;2.77;;;;;;;;;;4993638;28;20456;-79
2022/09/21 03:55:18;;;;;;;5.93;3.10;;;;;;;;;;4993647;28;20460;-79
2022/09/21 03:57:45;;;;;;;4.60;2.83;;;;;;;;;;4993648;28;20481;-80
2022/09/21 04:00:13;;;;;;;8.03;3.90;;;;;;;;;;4993432;28;20504;-79
2022/09/21 04:02:41;;;;;;;6.27;3.23;;;;;;;;;;4991934;28;20819;-78
2022/09/21 04:05:09;;;;;;;5.40;3.87;;;3.70;99.90;;;;;;4993538;28;20449;-78
2022/09/21 04:08:03;;;;;;;6.50;3.93;;;3.80;99.90;;;;;;4995454;28;20464;-78
2022/09/21 04:10:32;;;;;;;5.27;3.77;;;3.80;99.90;;;;;;4993541;28;20476;-79
2022/09/21 04:13:01;;;;;;;4.83;3.27;;;3.70;99.90;;;;;;4993536;28;20453;-78
2022/09/21 04:15:29;;;;;;;5.17;3.50;;;3.80;99.90;;;;;;4993448;28;20468;-80
2022/09/21 04:17:58;;;;;;;4.53;3.87;;;3.80;99.90;;;;;;4992069;28;20831;-79
2022/09/21 04:20:25;;;;;;;5.30;3.60;;;;;;;;;;4993353;28;20546;-79
2022/09/21 04:22:52;;;;;;;3.90;3.27;;;;;;;;;;4993465;28;20814;-79
2022/09/21 04:25:19;;;;;;;6.10;3.40;;;;;;;;;;4993199;28;20456;-79
2022/09/21 04:27:47;;;;;;;8.23;4.47;;;3.70;99.90;;;;;;4993311;28;20967;-79
2022/09/21 04:30:16;;;;;;;6.80;3.93;;;3.70;99.90;;;;;;4993485;28;20460;-79
2022/09/21 04:32:43;;;;;;;9.70;3.40;;;;;;;;;;4992030;28;20995;-78
2022/09/21 04:35:10;;;;;;;5.10;4.30;;;;;;;;;;4995235;28;20456;-79
2022/09/21 04:37:37;;;;;;;12.67;4.43;;;;;;;;;;4997216;28;20821;-79
2022/09/21 04:40:06;;;;;;;7.37;4.53;;;4.60;99.90;;;;;;4997196;28;20504;-79
2022/09/21 04:42:33;;;;;;;6.70;3.70;;;;;;;;;;4997232;28;20464;-78
2022/09/21 04:45:01;;;;;;;8.37;3.90;;;;;;;;;;4997932;28;20457;-78
2022/09/21 04:47:29;;;;;;;5.17;3.77;;;3.80;99.90;;;;;;5015003;28;20447;-79
2022/09/21 04:49:56;;;;;;;8.13;4.10;;;;;;;;;;5016205;28;20547;-79
2022/09/21 04:52:24;;;;;;;7.70;4.90;;;;;;;;;;4997631;28;20460;-79
2022/09/21 04:54:51;;;;;;;10.60;5.57;;;;;;;;;;4997467;28;20952;-79
2022/09/21 04:57:18;;;;;;;5.67;5.00;;;;;;;;;;4996743;28;20481;-79
2022/09/21 04:59:46;;;;;;;6.40;5.60;;;;;;;;;;4996549;28;20496;-80
2022/09/21 05:02:14;;;;;;;9.00;5.30;;;;;;;;;;4995699;28;20440;-79
2022/09/21 05:04:41;;;;;;;7.33;4.90;;;;;;;;;;4996617;28;20445;-78
2022/09/21 05:07:08;;;;;;;11.70;5.83;;;;;;;;;;4996557;28;20452;-80
2022/09/21 05:12:25;;;;;;;9.27;5.07;;;;;;;;;;4985930;28;20966;-79
2022/09/21 05:14:52;;;;;;;5.03;4.30;;;;;;;;;;4996463;28;20452;-80
2022/09/21 05:17:21;;;;;;;9.80;4.40;;;3.50;99.90;;;;;;4995052;28;20971;-79
2022/09/21 05:19:50;;;;;;;5.43;4.67;;;;;;;;;;4998647;28;20506;-80
2022/09/21 05:22:17;;;;;;;9.43;5.13;;;;;;;;;;4996670;28;20449;-79
2022/09/21 05:24:44;;;;;;;7.80;5.63;;;;;;;;;;4996370;28;20457;-79
2022/09/21 05:27:13;;;;;;;7.20;5.20;;;;;;;;;;5000116;28;20449;-79
2022/09/21 05:29:41;;;;;;;9.20;5.47;;;;;;;;;;4999301;28;20894;-81
2022/09/21 05:32:16;;;;;;;5.83;4.87;;;3.70;99.90;;;;;;4996267;28;20944;-83
2022/09/21 05:35:07;;;;;;;6.90;5.40;;;3.90;99.90;;;;;;4997077;28;20441;-79
2022/09/21 05:37:52;;;;;;;7.67;5.70;;;3.90;99.90;;;;;;4996079;28;20457;-79
2022/09/21 05:40:19;;;;;;;8.53;5.83;;;;;;;;;;4994907;28;20492;-80
2022/09/21 05:42:47;;;;;;;8.60;6.50;;;;;;;;;;4995822;28;20460;-79
2022/09/21 05:45:16;;;;;;;13.33;7.70;;;4.50;99.90;;;;;;4995628;28;20536;-80
2022/09/21 05:47:58;;;;;;;9.30;6.17;;;4.90;99.90;;;;;;4992168;28;20452;-79
2022/09/21 05:50:41;;;;;;;10.90;6.63;;;5.20;99.90;;;;;;4991798;28;20965;-79
2022/09/21 05:53:36;;;;;;;11.73;7.27;;;5.60;99.90;;;;;;4995810;28;20449;-80
2022/09/21 05:56:06;;;;;;;9.77;6.23;;;5.90;99.90;;;;;;4995658;28;20453;-80
2022/09/21 05:58:40;;;;;;;9.13;5.60;;;6.10;99.90;;;;;;4995765;28;20449;-79
2022/09/21 06:01:19;;;;;;;6.50;4.70;;;6.50;99.90;;;;;;4994172;28;20489;-79
2022/09/21 06:03:48;;;;;;;8.50;6.00;;;6.70;99.90;;;;;;4993428;28;20532;-79
2022/09/21 06:06:17;;;;;;;8.63;5.33;;;6.90;99.90;;;;;;4994329;28;20460;-80
2022/09/21 06:08:44;;;;;;;8.40;5.80;;;;;;;;;;4994003;28;20453;-79
2022/09/21 06:11:11;;;;;;;8.63;5.77;;;;;;;;;;4995439;28;20812;-80
2022/09/21 06:13:39;;;;;;;6.67;5.97;;;;;;;;;;4993924;28;20452;-79
2022/09/21 06:16:07;;;;;;;9.20;5.90;;;8.10;99.90;;;;;;4994527;28;20445;-79
2022/09/21 06:18:37;;;;;;;8.13;5.93;;;;;;;;;;4991711;28;20476;-79
2022/09/21 06:21:04;;;;;;;12.60;6.00;;;;;;;;;;4995163;28;20493;-79
2022/09/21 06:23:33;;;;;;;7.07;6.13;;;8.90;99.90;;;;;;4995409;28;20453;-79
2022/09/21 06:26:00;;;;;;;6.33;5.73;;;;;;;;;;4994907;28;20449;-80
2022/09/21 06:28:28;;;;;;;10.27;5.57;;;;;;;;;;4994648;28;20944;-80
2022/09/21 06:30:56;;;;;;;7.77;5.60;;;9.80;99.90;;;;;;4993066;28;20504;-79
2022/09/21 06:33:24;;;;;;;6.23;5.40;;;;;;;;;;4993515;28;20575;-79
2022/09/21 06:35:55;;;;;;;6.73;6.07;;;10.20;99.90;;;;;;4994829;28;20459;-80
2022/09/21 06:38:22;;;;;;;7.10;5.70;;;;;;;;;;4994956;28;20454;-79
2022/09/21 06:40:51;;;;;;;6.40;5.80;;;10.70;99.90;;;;;;4994661;28;20500;-79
2022/09/21 06:43:18;;;;;;;7.40;5.60;;;;;;;;;;4993156;28;20813;-79
2022/09/21 06:45:53;;;;;;;8.97;5.67;;;11.60;99.90;;;;;;4994757;28;20460;-80
2022/09/21 06:48:20;;;;;;;10.93;6.20;;;;;;;;;;4993671;28;20520;-79
2022/09/21 06:50:47;;;;;;;9.60;6.57;;;;;;;;;;4994812;28;20792;-79
2022/09/21 06:53:15;;;;;;;11.97;8.73;;;;;;;;;;4994595;28;20450;-80
2022/09/21 06:55:42;;;;;;;18.47;7.53;;;;;;;;;;4994743;28;20445;-87
2022/09/21 06:58:10;;;;;;;9.63;6.50;;;;;;;;;;4994372;28;20471;-89
2022/09/21 07:00:37;;;;;;;13.90;6.20;;;;;;;;;;4994505;28;20493;-84
2022/09/21 07:03:04;;;;;;;8.43;6.57;;;;;;;;;;4993631;28;20456;-84
2022/09/21 07:05:33;;;;;;;7.60;5.17;;;;;;;;;;4994542;28;20450;-86
2022/09/21 07:08:00;;;;;;;7.53;6.13;;;;;;;;;;4994450;28;20449;-83
2022/09/21 07:10:27;;;;;;;6.43;5.83;;;;;;;;;;4994568;28;20445;-82
2022/09/21 07:12:54;;;;;;;7.50;6.40;;;;;;;;;;4995298;28;20472;-83
2022/09/21 07:15:27;;;;;;;5.17;4.40;;;;;;;;;;4994654;28;20454;-85
2022/09/21 07:17:54;;;;;;;8.30;5.63;;;;;;;;;;5014838;28;20465;-84
2022/09/21 07:20:21;;;;;;;7.80;5.30;;;;;;;;;;5008950;28;20841;-81
2022/09/21 07:22:48;;;;;;;11.73;7.03;;;;;;;;;;4994646;28;20927;-79
2022/09/21 07:25:15;;;;;;;6.20;5.10;;;;;;;;;;4994278;28;20461;-80
2022/09/21 07:27:42;;;;;;;7.40;5.53;;;;;;;;;;4994335;28;20449;-79
2022/09/21 07:30:10;;;;;;;6.40;5.70;;;13.80;99.90;;;;;;4994073;28;20970;-80
2022/09/21 07:32:38;;;;;;;6.17;5.57;;;;;;;;;;4992575;28;20481;-80
2022/09/21 07:35:06;;;;;;;6.27;5.40;;;14.00;97.40;;;;;;4993796;28;20449;-80
2022/09/21 07:37:33;;;;;;;6.00;5.50;;;;;;;;;;4993865;28;20460;-80
2022/09/21 07:40:04;;;;;;;6.87;6.00;;;;;;;;;;4993733;28;20493;-81
2022/09/21 07:42:31;;;;;;;6.70;5.53;;;;;;;;;;4993763;28;20940;-81
2022/09/21 07:44:58;;;;;;;7.57;5.57;;;;;;;;;;4993549;28;20967;-82
2022/09/21 07:47:26;;;;;;;9.53;5.50;;;16.10;92.20;;;;;;4992481;28;20891;-81
2022/09/21 07:49:55;;;;;;;5.33;4.50;;;;;;;;;;4993638;28;20457;-82
2022/09/21 07:52:22;;;;;;;8.63;3.77;;;;;;;;;;4993659;28;20527;-81
2022/09/21 07:54:49;;;;;;;6.57;4.23;;;;;;;;;;4991383;28;20461;-83
2022/09/21 08:00:01;;;;;;;5.40;3.47;;;;;;;;;;4992488;28;20600;-84
2022/09/21 08:02:29;;;;;;;5.03;3.50;;;;;;;;;;4992526;28;20454;-84
2022/09/21 08:04:57;;;;;;;4.07;3.40;;;;;;;;;;4993631;28;20453;-81
2022/09/21 08:07:26;;;;;;;4.73;3.30;;;;;;;;;;4993522;28;20453;-87
2022/09/21 08:09:53;;;;;;;3.83;3.43;;;;;;;;;;4995009;28;20481;-87
2022/09/21 08:12:20;;;;;;;4.07;3.67;;;;;;;;;;4997695;28;20457;-84
2022/09/21 08:14:48;;;;;;;5.07;3.80;;;;;;;;;;4997383;28;20456;-85
2022/09/21 08:17:15;;;;;;;5.83;3.10;;;;;;;;;;4996170;28;20544;-84
2022/09/21 08:19:42;;;;;;;5.07;3.60;;;;;;;;;;4997401;28;20453;-84
2022/09/21 08:22:12;;;;;;;3.00;2.70;;;;;;;;;;4997496;28;20794;-84
2022/09/21 08:24:43;;;;;;;2.40;2.20;;;;;;;;;;4997220;28;20445;-83
2022/09/21 08:27:10;;;;;;;3.30;2.40;;;;;;;;;;4997219;28;20532;-83
2022/09/21 08:29:37;;;;;;;3.67;2.83;;;;;;;;;;4997219;28;20449;-82
2022/09/21 08:32:04;;;;;;;5.60;2.40;;;;;;;;;;4996115;28;20802;-83
2022/09/21 08:34:31;;;;;;;2.80;2.13;;;;;;;;;;4997178;28;20453;-87
2022/09/21 08:36:58;;;;;;;3.20;1.87;;;;;;;;;;4997790;28;20444;-87
2022/09/21 08:39:27;;;;;;;2.67;2.13;;;;;;;;;;4997923;28;20449;-82
2022/09/21 08:42:20;;;;;;;3.60;1.97;;;16.50;90.80;;;;;;4996939;28;20600;-85
2022/09/21 08:44:51;;;;;;;3.90;2.20;;;17.30;92.60;;;;;;4997185;28;20445;-87
2022/09/21 08:47:21;;;;;;;2.57;1.70;;;16.90;89.60;;;;;;4995876;28;20449;-86
2022/09/21 08:49:53;;;;;;;2.13;1.57;;;17.80;87.00;;;;;;4997037;28;20464;-84
2022/09/21 08:52:23;;;;;;;2.80;1.70;;;18.30;84.90;;;;;;4996823;28;20600;-87
2022/09/21 08:54:57;;;;;;;2.57;1.23;;;18.70;79.90;;;;;;4996868;28;20773;-81
2022/09/21 08:57:29;;;;;;;3.37;1.30;;;18.70;81.20;;;;;;4996885;28;20441;-86
2022/09/21 08:59:56;;;;;;;2.60;1.90;;;;;;;;;;4996589;28;20465;-82
2022/09/21 09:02:43;;;;;;;3.33;2.10;;;17.50;79.30;;;;;;4995414;28;20498;-85
2022/09/21 09:05:25;;;;;;;2.57;1.70;;;17.70;81.00;;;;;;4996670;28;20456;-81
2022/09/21 09:08:08;;;;;;;2.33;1.47;;;17.80;82.00;;;;;;4996380;28;20449;-83
2022/09/21 09:10:41;;;;;;;3.70;1.60;;;17.70;85.80;;;;;;4996651;28;20448;-82
2022/09/21 09:13:43;;;;;;;4.80;1.97;;;18.30;78.60;;;;;;4995787;28;20469;-82
2022/09/21 09:16:18;;;;;;;2.10;1.30;;;18.60;81.80;;;;;;4989283;28;20460;-82
2022/09/21 09:18:51;;;;;;;2.03;1.50;;;18.40;83.10;;;;;;4995183;28;20788;-81
2022/09/21 09:21:22;;;;;;;2.40;2.20;;;18.50;82.20;;;;;;4995755;28;20497;-79
2022/09/21 09:23:52;;;;;;;1.70;1.30;;;18.50;80.60;;;;;;4996124;28;20449;-83
2022/09/21 09:26:25;;;;;;;3.10;1.20;;;19.20;81.90;;;;;;4996272;28;20495;-80
2022/09/21 09:28:58;;;;;;;1.27;1.03;;;19.50;75.70;;;;;;4994324;28;20451;-85
2022/09/21 09:31:31;;;;;;;2.27;1.40;;;18.60;73.70;;;;;;5004845;28;20841;-80
2022/09/21 09:34:03;;;;;;;6.43;1.20;;;19.10;79.50;;;;;;5013880;28;20476;-83
2022/09/21 09:36:33;;;;;;;1.53;1.27;;;18.60;76.40;;;;;;5012278;28;20453;-81
2022/09/21 09:39:03;;;;;;;3.13;1.90;;;18.50;78.00;;;;;;5015575;28;20471;-82
2022/09/21 09:41:56;;;;;;;2.63;1.30;;;18.80;74.90;;;;;;5010477;28;20500;-81
2022/09/21 09:44:43;;;;;;;1.47;1.10;;;19.40;76.80;;;;;;5014948;28;20512;-84
2022/09/21 09:47:19;;;;;;;3.83;1.40;;;19.60;76.20;;;;;;5013921;28;20455;-80
2022/09/21 09:49:59;;;;;;;2.63;1.00;;;19.70;71.60;;;;;;5011994;28;20983;-83
2022/09/21 09:52:26;;;;;;;2.43;0.93;;;;;;;;;;5015277;28;20464;-88
2022/09/21 09:54:53;;;;;;;2.23;1.20;;;;;;;;;;5014850;28;20932;-80
2022/09/21 09:57:28;;;;;;;4.40;1.13;;;18.80;72.40;;;;;;5015024;28;20523;-79
2022/09/21 10:00:00;;;;;;;3.63;1.20;;;19.20;71.90;;;;;;5014886;28;20456;-79
2022/09/21 10:02:28;;;;;;;2.30;0.90;;;19.10;72.40;;;;;;4979302;28;20488;-81
2022/09/21 10:05:04;;;;;;;0.93;0.77;;;19.50;71.00;;;;;;5015121;28;20453;-81
2022/09/21 10:07:36;;;;;;;1.53;0.83;;;19.60;65.60;;;;;;5008559;28;20574;-81
2022/09/21 10:10:04;;;;;;;1.67;1.00;;;;;;;;;;5014946;28;20449;-81
2022/09/21 10:12:32;;;;;;;2.13;0.80;;;19.60;71.70;;;;;;5010717;28;20854;-80
2022/09/21 10:15:00;;;;;;;1.50;1.00;;;;;;;;;;5014488;28;20943;-80
2022/09/21 10:17:27;;;;;;;2.07;1.10;;;;;;;;;;5013196;28;20507;-80
2022/09/21 10:20:00;;;;;;;2.87;0.93;;;19.60;72.30;;;;;;5014285;28;20451;-81
2022/09/21 10:22:29;;;;;;;1.67;1.30;;;19.90;71.80;;;;;;5014658;28;20550;-81
2022/09/21 10:24:58;;;;;;;3.87;1.67;;;;;;;;;;5014234;28;20932;-80
2022/09/21 10:27:27;;;;;;;3.63;1.80;;;19.00;73.00;;;;;;5014268;28;20452;-81
2022/09/21 10:29:56;;;;;;;1.83;1.07;;;18.20;73.30;;;;;;5014285;28;20456;-81
2022/09/21 10:32:25;;;;;;;1.87;1.20;;;18.00;76.30;;;;;;5011956;28;20576;-80
2022/09/21 10:35:13;;;;;;;1.33;1.23;;;17.90;70.30;;;;;;5014227;28;20459;-81
2022/09/21 10:37:41;;;;;;;2.10;1.00;;;17.50;79.20;;;;;;5014167;28;20471;-83
2022/09/21 10:40:23;;;;;;;1.47;1.33;;;17.60;78.40;;;;;;5014049;28;20502;-82
2022/09/21 10:42:51;;;;;;;1.23;1.10;;;17.20;79.30;;;;;;5013875;28;20515;-81
2022/09/21 10:45:21;;;;;;;1.67;1.30;;;16.80;81.80;;;;;;5013975;28;20452;-82
2022/09/21 10:47:51;;;;;;;2.70;1.43;;;16.50;83.10;;;;;;5012637;28;20452;-82
2022/09/21 10:50:25;;;;;;;2.20;1.43;;;16.10;78.70;;;;;;5013970;28;20958;-79
2022/09/21 10:52:57;;;;;;;1.23;1.13;;;15.40;85.30;;;;;;5010738;28;20453;-80
2022/09/21 10:55:26;;;;;;;1.77;1.03;;;15.20;86.70;;;;;;5013090;28;20472;-85
2022/09/21 10:57:57;;;;;;;2.13;1.47;;;15.20;86.40;;;;;;5013794;28;20464;-80
2022/09/21 11:00:35;;;;;;;2.33;1.40;;;15.80;81.60;;;;;;5013646;28;20495;-81
2022/09/21 11:03:27;;;;;;;2.20;1.23;;;16.50;82.50;;;;;;5012835;28;20483;-81
2022/09/21 11:05:54;;;;;;;2.03;1.20;;;;;;;;;;5012894;28;20539;-81
2022/09/21 11:08:30;;;;;;;3.47;1.23;;;18.50;77.40;;;;;;5013942;28;20452;-81
2022/09/21 11:11:08;;;;;;;1.90;0.90;;;18.50;76.90;;;;;;5013585;28;20461;-80
2022/09/21 11:13:39;;;;;;;3.00;0.97;;;18.50;75.50;;;;;;5013778;28;20451;-87
2022/09/21 11:16:17;;;;;;;2.57;0.83;;;19.20;76.90;;;;;;5013820;28;20448;-81
2022/09/21 11:18:51;;;;;;;3.60;1.07;;;19.80;72.70;;;;;;5012831;28;20444;-82
2022/09/21 11:21:27;;;;;;;1.73;1.00;;;19.20;71.20;;;;;;5011528;28;20567;-82
2022/09/21 11:24:02;;;;;;;2.50;0.90;;;19.20;73.60;;;;;;5006949;28;20455;-82
2022/09/21 11:26:34;;;;;;;2.30;1.17;;;19.20;69.70;;;;;;5010617;28;20443;-88
2022/09/21 11:29:09;;;;;;;2.17;1.23;;;19.80;71.40;;;;;;5010810;28;20448;-83
2022/09/21 11:31:51;;;;;;;3.70;0.80;;;18.40;71.90;;;;;;5013552;28;20482;-83
2022/09/21 11:34:41;;;;;;;1.00;0.80;;;18.10;72.90;;;;;;5012424;28;20452;-84
2022/09/21 11:37:18;;;;;;;1.27;0.90;;;19.10;73.70;;;;;;5010903;28;20448;-82
2022/09/21 11:40:02;;;;;;;8.63;1.20;;;18.20;72.20;;;;;;5010336;28;21014;-83
2022/09/21 11:42:47;;;;;;;1.70;0.90;;;18.80;66.60;;;;;;5013402;28;20496;-82
2022/09/21 11:45:28;;;;;;;1.63;0.80;;;18.90;69.10;;;;;;5013247;28;20456;-83
2022/09/21 11:48:09;;;;;;;1.13;0.73;;;19.40;69.30;;;;;;5012069;28;20444;-83
2022/09/21 11:50:59;;;;;;;6.10;1.50;;;19.40;67.00;;;;;;5013320;28;20457;-83
2022/09/21 11:53:43;;;;;;;2.30;1.00;;;20.20;68.00;;;;;;5013263;28;20452;-82
2022/09/21 11:56:33;;;;;;;2.77;1.00;;;19.30;69.40;;;;;;5013579;28;20452;-89
2022/09/21 11:59:15;;;;;;;1.40;0.87;;;19.40;71.80;;;;;;5003539;28;20452;-87
2022/09/21 12:01:57;;;;;;;6.73;0.90;;;19.80;69.70;;;;;;5013207;28;20484;-83
2022/09/21 12:04:40;;;;;;;1.70;1.50;;;20.20;68.70;;;;;;5012030;28;20448;-82
2022/09/21 12:07:20;;;;;;;0.70;0.70;;;19.90;73.10;;;;;;5013122;28;20809;-78
2022/09/21 12:10:02;;;;;;;1.17;0.90;;;20.60;75.20;;;;;;5013088;28;20440;-81
2022/09/21 12:12:36;;;;;;;2.40;0.80;;;19.90;76.00;;;;;;5012957;28;20809;-80
2022/09/21 12:15:08;;;;;;;1.30;0.80;;;18.70;74.90;;;;;;5013066;28;20454;-82
2022/09/21 12:17:44;;;;;;;1.43;0.90;;;18.00;77.90;;;;;;5008277;28;20447;-84
2022/09/21 12:20:20;;;;;;;1.93;0.83;;;17.60;82.00;;;;;;5013663;28;20500;-84
2022/09/21 12:22:52;;;;;;;1.63;1.17;;;17.80;80.00;;;;;;5011032;28;20844;-81
2022/09/21 12:25:23;;;;;;;1.60;0.77;;;19.00;80.90;;;;;;5012770;28;20448;-80
2022/09/21 12:27:56;;;;;;;0.70;0.63;;;19.70;77.80;;;;;;5012939;28;20467;-81
2022/09/21 12:30:24;;;;;;;4.90;0.90;;;19.80;73.80;;;;;;5012873;28;20451;-81
2022/09/21 12:32:57;;;;;;;1.40;0.60;;;19.60;71.70;;;;;;5008630;28;20484;-81
2022/09/21 12:35:33;;;;;;;1.00;0.70;;;19.90;74.80;;;;;;5003276;28;20832;-80
2022/09/21 12:38:07;;;;;;;0.83;0.63;;;20.40;69.00;;;;;;5010902;28;20452;-83
2022/09/21 12:40:41;;;;;;;1.57;0.80;;;19.90;67.40;;;;;;5007411;28;21017;-83
2022/09/21 12:43:19;;;;;;;1.63;0.67;;;19.20;68.50;;;;;;5009471;28;20492;-81
2022/09/21 12:45:52;;;;;;;2.07;0.83;;;19.30;67.70;;;;;;5009415;28;20452;-83
2022/09/21 12:48:29;;;;;;;1.13;0.60;;;18.30;71.50;;;;;;5011626;28;20444;-82
2022/09/21 12:51:01;;;;;;;0.80;0.53;;;17.70;72.10;;;;;;5012534;28;20452;-82
2022/09/21 12:53:31;;;;;;;3.17;0.67;;;17.80;73.80;;;;;;5012488;28;20453;-83
2022/09/21 12:56:05;;;;;;;1.50;0.63;;;17.50;72.20;;;;;;5013833;28;20488;-82
2022/09/21 12:58:47;;;;;;;1.43;0.67;;;18.00;70.50;;;;;;5011539;28;20448;-83
2022/09/21 13:01:27;;;;;;;1.17;0.70;;;18.90;69.90;;;;;;5015843;28;20492;-85
2022/09/21 13:04:20;;;;;;;0.80;0.70;;;18.50;70.80;;;;;;5011962;28;20455;-90
2022/09/21 13:07:15;;;;;;;0.83;0.70;;;17.80;71.80;;;;;;5016097;28;20444;-82
2022/09/21 13:09:44;;;;;;;1.20;0.70;;;17.40;73.30;;;;;;5016101;28;20459;-81
2022/09/21 13:12:16;;;;;;;1.30;0.60;;;17.20;73.90;;;;;;5016062;28;20468;-84
2022/09/21 13:14:47;;;;;;;1.30;0.90;;;17.00;76.10;;;;;;5013127;28;20522;-82
2022/09/21 13:17:21;;;;;;;2.30;0.80;;;16.60;76.40;;;;;;5011836;28;20987;-81
2022/09/21 13:19:57;;;;;;;2.37;0.50;;;16.30;75.60;;;;;;5012095;28;20443;-82
2022/09/21 13:22:29;;;;;;;2.00;0.80;;;16.60;75.50;;;;;;5015852;28;20503;-82
2022/09/21 13:25:03;;;;;;;1.83;0.67;;;18.10;71.20;;;;;;5012721;28;20448;-82
2022/09/21 13:28:00;;;;;;;1.27;0.87;;;19.30;66.90;;;;;;5015768;28;20448;-82
2022/09/21 13:30:33;;;;;;;0.90;0.60;;;19.50;65.20;;;;;;5015888;28;20456;-80
2022/09/21 13:33:00;;;;;;;1.27;0.63;;;;;;;;;;5014664;28;20479;-81
2022/09/21 13:35:52;;;;;;;1.27;0.80;;;18.30;71.10;;;;;;5013715;28;20502;-81
2022/09/21 13:38:25;;;;;;;1.40;0.60;;;17.70;64.10;;;;;;5016034;28;20460;-81
2022/09/21 13:40:58;;;;;;;1.20;0.70;;;17.40;72.50;;;;;;5015681;28;20456;-81
2022/09/21 13:43:46;;;;;;;1.20;0.60;;;17.20;74.20;;;;;;5015505;28;20499;-80
2022/09/21 13:46:51;;;;;;;0.90;0.63;;;16.80;68.50;;;;;;5015640;28;20535;-81
2022/09/21 13:49:28;;;;;;;1.10;0.70;;;16.60;76.10;;;;;;5013450;28;20456;-81
2022/09/21 13:51:59;;;;;;;2.00;0.80;;;16.60;77.60;;;;;;4997592;28;20455;-81
2022/09/21 13:54:32;;;;;;;0.87;0.47;;;16.70;75.80;;;;;;5013174;28;20476;-79
2022/09/21 13:57:05;;;;;;;1.20;0.63;;;17.00;77.80;;;;;;5011531;28;20502;-81
2022/09/21 13:59:34;;;;;;;1.90;0.77;;;16.80;75.90;;;;;;5015729;28;20444;-82
2022/09/21 14:02:03;;;;;;;1.57;0.60;;;16.50;74.20;;;;;;5015331;28;20488;-86